createdAt,value
2017-08-13T00:00:07.994Z,3.45
2017-08-13T00:02:35.498Z,3.60
2017-08-13T00:05:03.005Z,3.50
2017-08-13T00:07:30.516Z,4.90
2017-08-13T00:09:58.019Z,3.45
2017-08-13T00:12:25.521Z,3.47
2017-08-13T00:14:53.021Z,3.70
2017-08-13T00:17:20.530Z,3.37
2017-08-13T00:19:48.052Z,3.40
2017-08-13T00:22:15.569Z,3.35
2017-08-13T00:24:43.073Z,3.20
2017-08-13T00:27:10.581Z,3.62
2017-08-13T00:29:38.089Z,3.60
2017-08-13T00:32:05.597Z,3.42
2017-08-13T00:34:33.113Z,3.60
2017-08-13T00:37:00.621Z,3.53
2017-08-13T00:39:28.137Z,3.58
2017-08-13T00:41:55.653Z,3.53
2017-08-13T00:44:23.160Z,3.85
2017-08-13T00:46:51.677Z,3.80
2017-08-13T00:49:19.199Z,4.28
2017-08-13T00:51:46.709Z,4.20
2017-08-13T00:56:59.961Z,3.78
2017-08-13T00:59:27.472Z,3.75
2017-08-13T01:01:54.978Z,4.05
2017-08-13T01:04:22.288Z,4.37
2017-08-13T01:06:50.790Z,3.47
2017-08-13T01:09:19.298Z,4.20
2017-08-13T01:11:46.819Z,4.03
2017-08-13T01:14:14.337Z,3.70
2017-08-13T01:16:41.847Z,3.50
2017-08-13T01:19:09.353Z,3.53
2017-08-13T01:21:36.864Z,3.55
2017-08-13T01:24:04.373Z,4.10
2017-08-13T01:26:31.883Z,3.90
2017-08-13T01:28:59.387Z,3.80
2017-08-13T01:31:26.898Z,3.50
2017-08-13T01:33:54.426Z,4.12
2017-08-13T01:36:21.941Z,3.60
2017-08-13T01:38:49.456Z,4.00
2017-08-13T01:41:16.978Z,3.70
2017-08-13T01:43:44.485Z,3.70
2017-08-13T01:46:11.997Z,4.12
2017-08-13T01:48:39.504Z,4.20
2017-08-13T01:51:07.009Z,3.78
2017-08-13T01:53:34.515Z,4.20
2017-08-13T01:56:02.030Z,3.65
2017-08-13T01:58:29.549Z,3.72
2017-08-13T02:00:57.057Z,3.40
2017-08-13T02:03:24.568Z,3.65
2017-08-13T02:05:51.793Z,3.80
2017-08-13T02:08:19.312Z,3.87
2017-08-13T02:10:46.833Z,3.85
2017-08-13T02:13:15.185Z,4.00
2017-08-13T02:15:42.737Z,3.72
2017-08-13T02:18:09.966Z,3.27
2017-08-13T02:20:37.510Z,3.42
2017-08-13T02:23:05.029Z,3.67
2017-08-13T02:25:32.554Z,3.70
2017-08-13T02:28:00.074Z,4.20
2017-08-13T02:30:27.309Z,3.10
2017-08-13T02:32:54.812Z,3.65
2017-08-13T02:35:22.320Z,3.42
2017-08-13T02:37:50.832Z,3.92
2017-08-13T02:40:18.346Z,3.75
2017-08-13T02:42:45.579Z,3.60
2017-08-13T02:45:13.081Z,3.47
2017-08-13T02:47:40.110Z,3.30
2017-08-13T02:50:07.622Z,3.72
2017-08-13T02:52:35.131Z,3.90
2017-08-13T02:55:02.652Z,3.50
2017-08-13T02:57:30.166Z,3.17
2017-08-13T02:59:57.397Z,4.00
2017-08-13T03:02:24.908Z,3.85
2017-08-13T03:04:52.417Z,4.05
2017-08-13T03:07:19.934Z,4.15
2017-08-13T03:09:47.441Z,3.90
2017-08-13T03:12:14.941Z,4.00
2017-08-13T03:14:42.453Z,4.05
2017-08-13T03:17:09.996Z,4.30
2017-08-13T03:19:37.502Z,3.78
2017-08-13T03:22:05.009Z,4.10
2017-08-13T03:24:32.520Z,3.92
2017-08-13T03:26:59.749Z,4.37
2017-08-13T03:29:27.249Z,4.05
2017-08-13T03:31:54.757Z,3.90
2017-08-13T03:34:22.273Z,3.50
2017-08-13T03:36:49.626Z,3.50
2017-08-13T03:39:17.137Z,3.12
2017-08-13T03:41:44.648Z,4.15
2017-08-13T03:44:12.153Z,3.90
2017-08-13T03:46:39.667Z,3.95
2017-08-13T03:49:07.176Z,3.60
2017-08-13T03:51:36.632Z,3.50
2017-08-13T03:54:04.132Z,4.70
2017-08-13T03:56:31.649Z,3.78
2017-08-13T03:58:59.168Z,4.45
2017-08-13T04:01:26.688Z,3.30
2017-08-13T04:03:54.253Z,3.70
2017-08-13T04:06:21.768Z,4.05
2017-08-13T04:08:49.276Z,3.75
2017-08-13T04:11:16.789Z,3.85
2017-08-13T04:13:44.300Z,3.78
2017-08-13T04:16:11.812Z,3.30
2017-08-13T04:18:39.137Z,3.70
2017-08-13T04:21:06.652Z,4.18
2017-08-13T04:23:34.174Z,3.60
2017-08-13T04:26:01.685Z,3.40
2017-08-13T04:28:29.196Z,3.12
2017-08-13T04:30:56.704Z,3.45
2017-08-13T04:33:24.212Z,3.70
2017-08-13T04:35:51.726Z,3.80
2017-08-13T04:38:19.232Z,4.35
2017-08-13T04:40:46.741Z,3.58
2017-08-13T04:43:14.257Z,3.50
2017-08-13T04:45:41.763Z,3.20
2017-08-13T04:48:09.273Z,2.80
2017-08-13T04:50:36.780Z,2.85
2017-08-13T04:53:04.294Z,3.78
2017-08-13T04:55:31.805Z,2.92
2017-08-13T04:57:59.312Z,2.97
2017-08-13T05:00:27.812Z,3.42
2017-08-13T05:02:56.324Z,3.28
2017-08-13T05:05:23.830Z,3.20
2017-08-13T05:07:51.333Z,3.15
2017-08-13T05:10:18.833Z,3.83
2017-08-13T05:12:46.335Z,3.40
2017-08-13T05:15:13.844Z,3.20
2017-08-13T05:17:41.347Z,2.80
2017-08-13T05:20:08.852Z,3.30
2017-08-13T05:22:36.068Z,2.77
2017-08-13T05:25:05.230Z,2.70
2017-08-13T05:27:33.737Z,3.12
2017-08-13T05:30:02.245Z,2.80
2017-08-13T05:32:29.749Z,2.50
2017-08-13T05:34:57.249Z,3.00
2017-08-13T05:37:24.470Z,2.80
2017-08-13T05:39:51.700Z,2.70
2017-08-13T05:42:18.917Z,2.73
2017-08-13T05:44:46.132Z,2.67
2017-08-13T05:47:13.628Z,2.70
2017-08-13T05:49:41.134Z,2.35
2017-08-13T05:52:08.363Z,2.70
2017-08-13T05:54:35.392Z,2.50
2017-08-13T05:57:02.612Z,2.33
2017-08-13T05:59:30.126Z,2.20
2017-08-13T06:01:57.341Z,2.40
2017-08-13T06:04:24.564Z,2.63
2017-08-13T06:06:52.068Z,2.45
2017-08-13T06:09:19.293Z,2.53
2017-08-13T06:11:46.513Z,2.70
2017-08-13T06:14:13.743Z,2.80
2017-08-13T06:16:40.962Z,3.60
2017-08-13T06:19:08.185Z,2.50
2017-08-13T06:21:35.404Z,2.57
2017-08-13T06:24:02.428Z,2.73
2017-08-13T06:26:29.652Z,2.53
2017-08-13T06:28:56.873Z,2.50
2017-08-13T06:31:24.093Z,1.87
2017-08-13T06:33:51.311Z,2.50
2017-08-13T06:36:18.533Z,2.43
2017-08-13T06:38:45.752Z,2.50
2017-08-13T06:41:12.968Z,2.50
2017-08-13T06:43:40.188Z,2.20
2017-08-13T06:46:07.408Z,2.40
2017-08-13T06:48:34.638Z,2.53
2017-08-13T06:51:03.800Z,2.20
2017-08-13T06:53:31.023Z,2.40
2017-08-13T06:55:58.252Z,2.40
2017-08-13T06:58:25.476Z,4.67
2017-08-13T07:00:54.641Z,3.90
2017-08-13T07:03:21.869Z,4.87
2017-08-13T07:05:49.089Z,3.00
2017-08-13T07:08:16.308Z,2.53
2017-08-13T07:10:43.544Z,2.30
2017-08-13T07:13:10.784Z,2.17
2017-08-13T07:15:37.994Z,2.27
2017-08-13T07:18:05.213Z,2.50
2017-08-13T07:20:32.433Z,2.07
2017-08-13T07:22:59.657Z,2.30
2017-08-13T07:25:26.888Z,2.67
2017-08-13T07:27:56.057Z,2.13
2017-08-13T07:30:23.288Z,2.40
2017-08-13T07:32:50.514Z,2.40
2017-08-13T07:35:17.796Z,2.30
2017-08-13T07:37:45.016Z,2.30
2017-08-13T07:40:12.235Z,2.40
2017-08-13T07:42:39.461Z,2.40
2017-08-13T07:45:06.684Z,2.43
2017-08-13T07:47:33.900Z,2.30
2017-08-13T07:50:01.135Z,2.33
2017-08-13T07:52:28.356Z,2.33
2017-08-13T07:54:55.572Z,2.23
2017-08-13T07:57:22.793Z,1.97
2017-08-13T07:59:50.012Z,2.10
2017-08-13T08:02:17.235Z,2.60
2017-08-13T08:04:44.452Z,2.03
2017-08-13T08:07:11.664Z,3.07
2017-08-13T08:09:40.841Z,2.20
2017-08-13T08:12:08.056Z,1.77
2017-08-13T08:14:35.277Z,1.90
2017-08-13T08:17:02.499Z,2.00
2017-08-13T08:19:29.725Z,2.17
2017-08-13T08:21:56.936Z,1.97
2017-08-13T08:24:26.064Z,2.10
2017-08-13T08:26:53.303Z,1.90
2017-08-13T08:29:20.525Z,2.13
2017-08-13T08:31:49.668Z,2.20
2017-08-13T08:34:16.897Z,2.40
2017-08-13T08:36:44.116Z,2.30
2017-08-13T08:39:11.332Z,2.17
2017-08-13T08:41:38.557Z,2.27
2017-08-13T08:44:05.791Z,2.00
2017-08-13T08:46:33.028Z,2.20
2017-08-13T08:49:00.253Z,1.90
2017-08-13T08:51:27.474Z,1.87
2017-08-13T08:53:56.616Z,2.40
2017-08-13T08:56:23.836Z,2.60
2017-08-13T08:58:53.032Z,1.70
2017-08-13T09:01:20.256Z,1.80
2017-08-13T09:03:47.476Z,2.40
2017-08-13T09:06:15.524Z,1.67
2017-08-13T09:08:42.778Z,2.00
2017-08-13T09:11:09.995Z,1.73
2017-08-13T09:13:37.218Z,1.87
2017-08-13T09:16:04.437Z,2.00
2017-08-13T09:18:31.656Z,2.07
2017-08-13T09:20:58.884Z,1.93
2017-08-13T09:23:26.108Z,1.90
2017-08-13T09:25:53.335Z,2.13
2017-08-13T09:28:22.485Z,2.03
2017-08-13T09:30:49.708Z,2.00
2017-08-13T09:33:16.923Z,2.17
2017-08-13T09:35:44.143Z,1.90
2017-08-13T09:38:11.360Z,1.73
2017-08-13T09:40:38.585Z,2.10
2017-08-13T09:43:05.808Z,2.13
2017-08-13T09:45:33.032Z,1.90
2017-08-13T09:48:00.248Z,1.80
2017-08-13T09:50:27.468Z,2.20
2017-08-13T09:52:54.684Z,2.40
2017-08-13T09:55:21.910Z,1.73
2017-08-13T09:57:49.134Z,2.10
2017-08-13T10:00:16.352Z,1.93
2017-08-13T10:02:43.572Z,2.10
2017-08-13T10:05:10.802Z,1.90
2017-08-13T10:07:38.019Z,1.80
2017-08-13T10:10:05.240Z,1.90
2017-08-13T10:12:32.459Z,1.70
2017-08-13T10:14:59.680Z,1.70
2017-08-13T10:17:26.901Z,1.90
2017-08-13T10:19:54.120Z,1.90
2017-08-13T10:22:21.340Z,1.90
2017-08-13T10:24:48.566Z,1.60
2017-08-13T10:27:15.817Z,1.53
2017-08-13T10:29:45.008Z,2.10
2017-08-13T10:32:12.234Z,1.73
2017-08-13T10:34:39.520Z,1.70
2017-08-13T10:37:06.743Z,1.87
2017-08-13T10:39:33.812Z,1.83
2017-08-13T10:42:01.055Z,1.80
2017-08-13T10:44:28.933Z,1.90
2017-08-13T10:46:56.148Z,1.57
2017-08-13T10:49:23.368Z,1.93
2017-08-13T10:51:50.602Z,1.73
2017-08-13T10:54:17.818Z,1.77
2017-08-13T10:56:45.029Z,2.07
2017-08-13T10:59:12.249Z,1.90
2017-08-13T11:01:39.464Z,1.73
2017-08-13T11:04:06.675Z,1.60
2017-08-13T11:06:33.892Z,2.23
2017-08-13T11:09:01.113Z,1.70
2017-08-13T11:11:28.333Z,1.80
2017-08-13T11:13:55.568Z,1.67
2017-08-13T11:16:22.791Z,1.90
2017-08-13T11:18:51.933Z,1.90
2017-08-13T11:21:19.161Z,1.70
2017-08-13T11:23:46.376Z,1.53
2017-08-13T11:26:13.598Z,1.80
2017-08-13T11:28:40.828Z,1.93
2017-08-13T11:31:08.048Z,1.73
2017-08-13T11:33:35.274Z,1.70
2017-08-13T11:36:02.510Z,1.53
2017-08-13T11:38:29.732Z,2.00
2017-08-13T11:40:56.973Z,1.70
2017-08-13T11:43:24.188Z,1.90
2017-08-13T11:45:51.413Z,1.60
2017-08-13T11:48:18.647Z,1.90
2017-08-13T11:50:45.748Z,1.70
2017-08-13T11:53:12.978Z,1.50
2017-08-13T11:55:40.420Z,1.50
2017-08-13T11:58:07.640Z,1.30
2017-08-13T12:00:35.804Z,1.50
2017-08-13T12:03:04.985Z,1.30
2017-08-13T12:05:32.201Z,1.47
2017-08-13T12:07:59.420Z,1.43
2017-08-13T12:10:26.637Z,1.53
2017-08-13T12:12:53.854Z,1.40
2017-08-13T12:15:21.076Z,2.03
2017-08-13T12:17:48.290Z,1.73
2017-08-13T12:20:15.517Z,1.60
2017-08-13T12:22:42.741Z,1.40
2017-08-13T12:25:09.969Z,1.50
2017-08-13T12:27:39.132Z,1.40
2017-08-13T12:30:06.353Z,1.60
2017-08-13T12:32:33.580Z,1.60
2017-08-13T12:35:00.804Z,1.50
2017-08-13T12:37:28.075Z,1.43
2017-08-13T12:39:55.296Z,1.30
2017-08-13T12:42:22.517Z,1.40
2017-08-13T12:44:49.741Z,1.37
2017-08-13T12:47:16.973Z,1.30
2017-08-13T12:49:44.200Z,1.33
2017-08-13T12:52:11.423Z,1.37
2017-08-13T12:54:38.644Z,1.43
2017-08-13T12:57:05.874Z,1.20
2017-08-13T12:59:33.105Z,1.30
2017-08-13T13:02:02.257Z,1.10
2017-08-13T13:04:29.485Z,1.20
2017-08-13T13:06:56.728Z,1.10
2017-08-13T13:09:23.948Z,1.10
2017-08-13T13:11:51.178Z,1.30
2017-08-13T13:14:18.397Z,1.37
2017-08-13T13:16:45.644Z,1.20
2017-08-13T13:19:14.834Z,1.60
2017-08-13T13:21:42.114Z,1.20
2017-08-13T13:24:09.392Z,1.50
2017-08-13T13:26:36.625Z,1.40
2017-08-13T13:29:03.849Z,1.10
2017-08-13T13:31:31.070Z,1.67
2017-08-13T13:34:00.225Z,1.07
2017-08-13T13:36:27.453Z,0.80
2017-08-13T13:38:54.680Z,0.97
2017-08-13T13:41:21.912Z,1.30
2017-08-13T13:43:49.136Z,1.00
2017-08-13T13:46:16.357Z,1.00
2017-08-13T13:48:43.576Z,0.90
2017-08-13T13:51:10.788Z,0.87
2017-08-13T13:53:38.017Z,1.10
2017-08-13T13:56:05.236Z,0.90
2017-08-13T13:58:32.449Z,1.00
2017-08-13T14:00:59.660Z,1.03
2017-08-13T14:03:26.897Z,1.00
2017-08-13T14:05:54.096Z,0.90
2017-08-13T14:08:21.317Z,1.13
2017-08-13T14:10:48.549Z,1.30
2017-08-13T14:13:17.724Z,1.30
2017-08-13T14:15:44.944Z,1.20
2017-08-13T14:18:12.399Z,1.40
2017-08-13T14:20:39.440Z,1.30
2017-08-13T14:23:06.670Z,1.50
2017-08-13T14:25:33.916Z,1.10
2017-08-13T14:28:03.097Z,1.10
2017-08-13T14:30:30.312Z,1.10
2017-08-13T14:32:57.533Z,1.30
2017-08-13T14:35:24.761Z,1.23
2017-08-13T14:37:51.976Z,1.33
2017-08-13T14:40:19.192Z,1.10
2017-08-13T14:42:46.421Z,1.27
2017-08-13T14:45:13.650Z,1.40
2017-08-13T14:47:40.868Z,1.27
2017-08-13T14:50:08.087Z,1.43
2017-08-13T14:52:35.325Z,1.40
2017-08-13T14:55:02.540Z,1.47
2017-08-13T14:57:31.741Z,1.77
2017-08-13T14:59:58.984Z,1.10
2017-08-13T15:02:26.214Z,1.20
2017-08-13T15:04:55.403Z,1.43
2017-08-13T15:07:22.629Z,1.50
2017-08-13T15:09:49.866Z,1.40
2017-08-13T15:12:17.081Z,1.97
2017-08-13T15:14:44.298Z,1.43
2017-08-13T15:17:13.456Z,1.67
2017-08-13T15:19:40.683Z,1.43
2017-08-13T15:22:07.901Z,1.60
2017-08-13T15:24:35.122Z,1.10
2017-08-13T15:27:02.160Z,1.40
2017-08-13T15:29:29.372Z,1.33
2017-08-13T15:31:56.601Z,1.20
2017-08-13T15:34:23.825Z,1.07
2017-08-13T15:36:51.044Z,1.30
2017-08-13T15:39:18.269Z,1.17
2017-08-13T15:41:45.492Z,1.20
2017-08-13T15:44:12.725Z,0.90
2017-08-13T15:46:39.956Z,1.03
2017-08-13T15:49:09.132Z,1.10
2017-08-13T15:51:36.364Z,1.13
2017-08-13T15:54:03.583Z,1.30
2017-08-13T15:56:30.825Z,0.90
2017-08-13T15:58:58.044Z,0.90
2017-08-13T16:01:25.265Z,1.03
2017-08-13T16:03:52.492Z,0.90
2017-08-13T16:06:19.712Z,0.83
2017-08-13T16:08:46.940Z,1.17
2017-08-13T16:11:14.168Z,1.20
2017-08-13T16:13:41.401Z,1.10
2017-08-13T16:16:10.581Z,1.00
2017-08-13T16:18:37.804Z,1.00
2017-08-13T16:21:05.024Z,1.00
2017-08-13T16:23:32.254Z,1.20
2017-08-13T16:25:59.481Z,1.20
2017-08-13T16:28:26.713Z,1.03
2017-08-13T16:30:55.909Z,1.27
2017-08-13T16:33:23.137Z,1.10
2017-08-13T16:35:50.357Z,1.50
2017-08-13T16:38:19.537Z,1.77
2017-08-13T16:40:46.760Z,1.33
2017-08-13T16:43:13.992Z,1.00
2017-08-13T16:45:41.225Z,1.20
2017-08-13T16:48:08.448Z,1.20
2017-08-13T16:50:35.673Z,1.43
2017-08-13T16:53:04.861Z,1.30
2017-08-13T16:55:32.101Z,1.17
2017-08-13T16:57:59.334Z,1.50
2017-08-13T17:00:26.575Z,1.30
2017-08-13T17:02:53.810Z,1.33
2017-08-13T17:05:21.045Z,1.30
2017-08-13T17:07:48.276Z,1.20
2017-08-13T17:10:15.501Z,1.17
2017-08-13T17:12:42.722Z,1.30
2017-08-13T17:15:09.944Z,1.40
2017-08-13T17:17:37.173Z,1.20
2017-08-13T17:20:04.419Z,1.10
2017-08-13T17:22:31.652Z,1.20
2017-08-13T17:24:58.887Z,1.50
2017-08-13T17:27:26.120Z,1.20
2017-08-13T17:29:54.387Z,1.60
2017-08-13T17:32:22.202Z,1.50
2017-08-13T17:34:49.429Z,1.60
2017-08-13T17:37:17.344Z,1.90
2017-08-13T17:39:44.566Z,1.23
2017-08-13T17:42:11.786Z,1.50
2017-08-13T17:44:39.012Z,1.50
2017-08-13T17:47:06.241Z,1.50
2017-08-13T17:49:33.461Z,2.10
2017-08-13T17:52:00.693Z,1.70
2017-08-13T17:54:29.865Z,1.67
2017-08-13T17:56:57.080Z,1.60
2017-08-13T17:59:24.296Z,1.90
2017-08-13T18:01:51.516Z,1.90
2017-08-13T18:04:18.740Z,1.97
2017-08-13T18:06:45.972Z,1.53
2017-08-13T18:09:13.194Z,2.20
2017-08-13T18:11:40.417Z,2.13
2017-08-13T18:14:07.647Z,2.10
2017-08-13T18:16:34.877Z,2.00
2017-08-13T18:19:04.061Z,1.73
2017-08-13T18:21:31.284Z,2.10
2017-08-13T18:23:58.505Z,2.10
2017-08-13T18:26:25.735Z,1.80
2017-08-13T18:28:52.956Z,2.40
2017-08-13T18:31:20.193Z,2.27
2017-08-13T18:33:47.417Z,1.73
2017-08-13T18:36:14.633Z,2.37
2017-08-13T18:38:41.865Z,2.40
2017-08-13T18:41:09.080Z,2.10
2017-08-13T18:43:36.301Z,2.07
2017-08-13T18:46:03.525Z,2.30
2017-08-13T18:48:30.752Z,2.50
2017-08-13T18:50:59.593Z,2.30
2017-08-13T18:53:26.812Z,2.50
2017-08-13T18:55:54.032Z,2.80
2017-08-13T18:58:21.244Z,4.27
2017-08-13T19:00:48.474Z,5.33
2017-08-13T19:03:15.710Z,4.67
2017-08-13T19:05:42.944Z,3.67
2017-08-13T19:08:10.182Z,13.40
2017-08-13T19:10:37.428Z,10.50
2017-08-13T19:13:04.662Z,8.63
2017-08-13T19:15:31.908Z,5.27
2017-08-13T19:17:59.144Z,50.87
2017-08-13T19:20:26.380Z,18.47
2017-08-13T19:22:53.674Z,10.03
2017-08-13T19:25:20.924Z,12.33
2017-08-13T19:27:48.151Z,6.90
2017-08-13T19:30:15.381Z,7.50
2017-08-13T19:32:42.634Z,14.20
2017-08-13T19:35:09.870Z,8.97
2017-08-13T19:37:37.093Z,6.47
2017-08-13T19:40:06.260Z,6.50
2017-08-13T19:42:33.586Z,5.93
2017-08-13T19:45:00.830Z,12.83
2017-08-13T19:47:28.066Z,10.00
2017-08-13T19:49:55.538Z,5.63
2017-08-13T19:52:23.408Z,6.70
2017-08-13T19:54:52.627Z,7.67
2017-08-13T19:57:20.109Z,14.80
2017-08-13T19:59:47.339Z,9.07
2017-08-13T20:02:14.589Z,6.70
2017-08-13T20:04:41.833Z,20.43
2017-08-13T20:07:09.065Z,115.07
2017-08-13T20:09:36.311Z,58.13
2017-08-13T20:12:03.541Z,25.80
2017-08-13T20:14:30.768Z,19.30
2017-08-13T20:16:59.958Z,12.80
2017-08-13T20:19:27.198Z,9.73
2017-08-13T20:21:54.424Z,7.70
2017-08-13T20:24:21.652Z,7.60
2017-08-13T20:26:48.883Z,12.17
2017-08-13T20:29:16.121Z,6.90
2017-08-13T20:31:43.346Z,5.23
2017-08-13T20:34:10.861Z,5.10
2017-08-13T20:36:38.098Z,4.73
2017-08-13T20:39:05.625Z,34.95
2017-08-13T20:41:34.822Z,25.43
2017-08-13T20:44:02.357Z,19.90
2017-08-13T20:46:29.891Z,17.85
2017-08-13T20:48:57.412Z,10.32
2017-08-13T20:51:24.661Z,6.00
2017-08-13T20:53:51.896Z,9.37
2017-08-13T20:56:19.404Z,7.00
2017-08-13T20:58:46.922Z,5.97
2017-08-13T21:01:14.440Z,5.47
2017-08-13T21:03:41.961Z,4.47
2017-08-13T21:06:09.196Z,5.70
2017-08-13T21:08:38.691Z,5.00
2017-08-13T21:11:07.212Z,4.90
2017-08-13T21:13:36.641Z,5.22
2017-08-13T21:16:04.149Z,4.45
2017-08-13T21:18:31.380Z,4.70
2017-08-13T21:20:58.661Z,4.40
2017-08-13T21:23:26.169Z,4.25
2017-08-13T21:25:53.685Z,2.97
2017-08-13T21:28:21.190Z,3.40
2017-08-13T21:30:48.691Z,4.22
2017-08-13T21:33:16.196Z,6.90
2017-08-13T21:35:43.727Z,7.47
2017-08-13T21:38:10.961Z,5.90
2017-08-13T21:40:38.189Z,4.80
2017-08-13T21:43:05.412Z,3.83
2017-08-13T21:45:32.632Z,4.50
2017-08-13T21:48:00.136Z,4.10
2017-08-13T21:50:27.363Z,4.70
2017-08-13T21:52:54.595Z,4.97
2017-08-13T21:55:21.827Z,6.83
2017-08-13T21:57:49.058Z,11.77
2017-08-13T22:00:16.289Z,3.87
2017-08-13T22:02:44.313Z,3.30
2017-08-13T22:05:11.869Z,8.98
2017-08-13T22:07:39.391Z,7.95
2017-08-13T22:10:06.628Z,12.43
2017-08-13T22:12:33.854Z,7.00
2017-08-13T22:15:01.369Z,4.45
2017-08-13T22:17:28.884Z,5.65
2017-08-13T22:19:57.379Z,8.25
2017-08-13T22:22:25.924Z,6.18
2017-08-13T22:24:53.443Z,5.32
2017-08-13T22:27:20.668Z,4.10
2017-08-13T22:29:48.172Z,4.40
2017-08-13T22:32:15.681Z,4.50
2017-08-13T22:34:43.196Z,4.05
2017-08-13T22:37:10.708Z,4.62
2017-08-13T22:39:38.218Z,5.05
2017-08-13T22:42:05.725Z,4.68
2017-08-13T22:44:33.237Z,4.72
2017-08-13T22:47:00.740Z,4.60
2017-08-13T22:49:28.252Z,4.50
2017-08-13T22:51:55.772Z,4.72
2017-08-13T22:54:23.279Z,5.35
2017-08-13T22:56:50.788Z,4.70
2017-08-13T22:59:18.296Z,4.28
2017-08-13T23:01:45.795Z,4.15
2017-08-13T23:04:13.309Z,4.10
2017-08-13T23:06:42.465Z,4.33
2017-08-13T23:09:09.972Z,4.80
2017-08-13T23:11:37.489Z,4.70
2017-08-13T23:14:05.011Z,4.37
2017-08-13T23:16:32.517Z,4.50
2017-08-13T23:19:00.028Z,4.75
2017-08-13T23:21:27.248Z,4.47
2017-08-13T23:23:54.753Z,5.30
2017-08-13T23:26:22.260Z,4.65
2017-08-13T23:28:49.776Z,4.55
2017-08-13T23:31:17.292Z,5.37
2017-08-13T23:33:44.810Z,4.22
2017-08-13T23:36:12.332Z,4.80
2017-08-13T23:38:39.838Z,4.35
2017-08-13T23:41:07.353Z,5.07
2017-08-13T23:43:34.876Z,4.47
2017-08-13T23:46:02.381Z,4.60
2017-08-13T23:48:29.888Z,4.62
2017-08-13T23:50:57.417Z,4.90
2017-08-13T23:53:24.927Z,4.35
2017-08-13T23:55:52.144Z,4.60
2017-08-13T23:58:21.577Z,4.25
